sensor_id;sensor_type;location;lat;lon;timestamp;pressure;altitude;pressure_sealevel;temperature;humidity
51287;BME280;37364;46.974;18.916;2023-02-28T00:00:40;150131.00;;;-0.89;100.00
51287;BME280;37364;46.974;18.916;2023-02-28T00:03:11;150132.25;;;-0.89;100.00
51287;BME280;37364;46.974;18.916;2023-02-28T00:05:41;150141.25;;;-0.85;100.00
51287;BME280;37364;46.974;18.916;2023-02-28T00:08:14;150156.66;;;-0.79;100.00
51287;BME280;37364;46.974;18.916;2023-02-28T00:10:44;150143.84;;;-0.84;100.00
51287;BME280;37364;46.974;18.916;2023-02-28T00:13:14;150133.53;;;-0.88;100.00
51287;BME280;37364;46.974;18.916;2023-02-28T00:15:44;150136.13;;;-0.87;100.00
51287;BME280;37364;46.974;18.916;2023-02-28T00:18:15;150147.66;;;-0.83;100.00
51287;BME280;37364;46.974;18.916;2023-02-28T00:20:46;150145.13;;;-0.84;100.00
51287;BME280;37364;46.974;18.916;2023-02-28T00:23:19;150142.53;;;-0.85;100.00
51287;BME280;37364;46.974;18.916;2023-02-28T00:25:49;150146.38;;;-0.83;100.00
51287;BME280;37364;46.974;18.916;2023-02-28T00:28:20;150147.66;;;-0.83;100.00
51287;BME280;37364;46.974;18.916;2023-02-28T00:30:50;150148.97;;;-0.82;100.00
51287;BME280;37364;46.974;18.916;2023-02-28T00:33:21;150152.78;;;-0.81;100.00
51287;BME280;37364;46.974;18.916;2023-02-28T00:35:51;150154.09;;;-0.80;100.00
51287;BME280;37364;46.974;18.916;2023-02-28T00:38:24;150157.91;;;-0.78;100.00
51287;BME280;37364;46.974;18.916;2023-02-28T00:40:54;150156.66;;;-0.79;100.00
51287;BME280;37364;46.974;18.916;2023-02-28T00:43:24;150160.50;;;-0.77;100.00
51287;BME280;37364;46.974;18.916;2023-02-28T00:45:54;150154.09;;;-0.80;100.00
51287;BME280;37364;46.974;18.916;2023-02-28T00:48:25;150165.63;;;-0.75;100.00
51287;BME280;37364;46.974;18.916;2023-02-28T00:50:55;150164.38;;;-0.76;100.00
51287;BME280;37364;46.974;18.916;2023-02-28T00:53:28;150152.78;;;-0.81;100.00
51287;BME280;37364;46.974;18.916;2023-02-28T00:55:59;150156.66;;;-0.79;100.00
51287;BME280;37364;46.974;18.916;2023-02-28T00:58:31;150159.25;;;-0.78;100.00
51287;BME280;37364;46.974;18.916;2023-02-28T01:01:01;150161.78;;;-0.77;100.00
51287;BME280;37364;46.974;18.916;2023-02-28T01:03:31;150161.78;;;-0.77;100.00
51287;BME280;37364;46.974;18.916;2023-02-28T01:06:02;150155.38;;;-0.80;100.00
51287;BME280;37364;46.974;18.916;2023-02-28T01:08:34;150164.38;;;-0.76;100.00
51287;BME280;37364;46.974;18.916;2023-02-28T01:11:09;150155.38;;;-0.80;100.00
51287;BME280;37364;46.974;18.916;2023-02-28T01:13:41;150161.78;;;-0.77;100.00
51287;BME280;37364;46.974;18.916;2023-02-28T01:16:12;150157.91;;;-0.78;100.00
51287;BME280;37364;46.974;18.916;2023-02-28T01:18:42;150152.78;;;-0.81;100.00
51287;BME280;37364;46.974;18.916;2023-02-28T01:21:15;150151.50;;;-0.81;100.00
51287;BME280;37364;46.974;18.916;2023-02-28T01:23:48;150148.97;;;-0.82;100.00
51287;BME280;37364;46.974;18.916;2023-02-28T01:26:21;150155.38;;;-0.80;100.00
51287;BME280;37364;46.974;18.916;2023-02-28T01:28:52;150145.13;;;-0.84;100.00
51287;BME280;37364;46.974;18.916;2023-02-28T01:31:23;150160.50;;;-0.77;100.00
51287;BME280;37364;46.974;18.916;2023-02-28T01:33:55;150164.38;;;-0.76;100.00
51287;BME280;37364;46.974;18.916;2023-02-28T01:36:28;150157.91;;;-0.78;100.00
51287;BME280;37364;46.974;18.916;2023-02-28T01:39:01;150165.63;;;-0.75;100.00
51287;BME280;37364;46.974;18.916;2023-02-28T01:41:33;150159.25;;;-0.78;100.00
51287;BME280;37364;46.974;18.916;2023-02-28T01:47:15;150172.03;;;-0.73;100.00
51287;BME280;37364;46.974;18.916;2023-02-28T01:49:45;150174.63;;;-0.72;100.00
51287;BME280;37364;46.974;18.916;2023-02-28T01:52:16;150168.22;;;-0.74;100.00
51287;BME280;37364;46.974;18.916;2023-02-28T01:54:51;150175.91;;;-0.71;100.00
51287;BME280;37364;46.974;18.916;2023-02-28T01:57:25;150172.03;;;-0.73;100.00
51287;BME280;37364;46.974;18.916;2023-02-28T02:00:07;150178.50;;;-0.70;100.00
51287;BME280;37364;46.974;18.916;2023-02-28T02:02:42;150175.91;;;-0.71;100.00
51287;BME280;37364;46.974;18.916;2023-02-28T02:05:16;150174.63;;;-0.72;100.00
51287;BME280;37364;46.974;18.916;2023-02-28T02:07:52;150182.31;;;-0.69;100.00
51287;BME280;37364;46.974;18.916;2023-02-28T02:10:33;150190.03;;;-0.66;100.00
51287;BME280;37364;46.974;18.916;2023-02-28T02:13:18;150191.31;;;-0.65;100.00
51287;BME280;37364;46.974;18.916;2023-02-28T02:16:00;150182.31;;;-0.69;100.00
51287;BME280;37364;46.974;18.916;2023-02-28T02:18:40;150184.91;;;-0.68;100.00
51287;BME280;37364;46.974;18.916;2023-02-28T02:22:02;150181.03;;;-0.69;100.00
51287;BME280;37364;46.974;18.916;2023-02-28T02:25:33;150182.31;;;-0.69;100.00
51287;BME280;37364;46.974;18.916;2023-02-28T02:28:36;150188.75;;;-0.66;100.00
51287;BME280;37364;46.974;18.916;2023-02-28T02:31:31;150187.44;;;-0.67;100.00
51287;BME280;37364;46.974;18.916;2023-02-28T02:37:25;150177.19;;;-0.71;100.00
51287;BME280;37364;46.974;18.916;2023-02-28T02:40:04;150179.75;;;-0.70;100.00
51287;BME280;37364;46.974;18.916;2023-02-28T02:42:44;150165.63;;;-0.75;100.00
51287;BME280;37364;46.974;18.916;2023-02-28T02:45:21;150168.22;;;-0.74;100.00
51287;BME280;37364;46.974;18.916;2023-02-28T02:47:58;150166.91;;;-0.75;100.00
51287;BME280;37364;46.974;18.916;2023-02-28T02:50:36;150172.03;;;-0.73;100.00
51287;BME280;37364;46.974;18.916;2023-02-28T02:53:11;150159.25;;;-0.78;100.00
51287;BME280;37364;46.974;18.916;2023-02-28T02:55:45;150160.50;;;-0.77;100.00
51287;BME280;37364;46.974;18.916;2023-02-28T02:58:23;150170.78;;;-0.73;100.00
51287;BME280;37364;46.974;18.916;2023-02-28T03:00:58;150173.38;;;-0.72;100.00
51287;BME280;37364;46.974;18.916;2023-02-28T03:03:31;150157.91;;;-0.78;100.00
51287;BME280;37364;46.974;18.916;2023-02-28T03:06:03;150168.22;;;-0.74;100.00
51287;BME280;37364;46.974;18.916;2023-02-28T03:08:38;150161.78;;;-0.77;100.00
51287;BME280;37364;46.974;18.916;2023-02-28T03:11:13;150157.91;;;-0.78;100.00
51287;BME280;37364;46.974;18.916;2023-02-28T03:14:14;150151.50;;;-0.81;100.00
51287;BME280;37364;46.974;18.916;2023-02-28T03:16:59;150154.09;;;-0.80;100.00
51287;BME280;37364;46.974;18.916;2023-02-28T03:19:45;150152.78;;;-0.81;100.00
51287;BME280;37364;46.974;18.916;2023-02-28T03:22:32;150136.13;;;-0.87;100.00
51287;BME280;37364;46.974;18.916;2023-02-28T03:25:12;150123.28;;;-0.92;100.00
51287;BME280;37364;46.974;18.916;2023-02-28T03:27:53;150123.28;;;-0.92;100.00
51287;BME280;37364;46.974;18.916;2023-02-28T03:30:29;150127.13;;;-0.91;100.00
51287;BME280;37364;46.974;18.916;2023-02-28T03:33:07;150119.47;;;-0.94;100.00
51287;BME280;37364;46.974;18.916;2023-02-28T03:35:42;150125.84;;;-0.91;100.00
51287;BME280;37364;46.974;18.916;2023-02-28T03:38:16;150128.41;;;-0.90;100.00
51287;BME280;37364;46.974;18.916;2023-02-28T03:40:55;150129.72;;;-0.90;100.00
51287;BME280;37364;46.974;18.916;2023-02-28T03:43:30;150128.41;;;-0.90;100.00
51287;BME280;37364;46.974;18.916;2023-02-28T03:46:10;150127.13;;;-0.91;100.00
51287;BME280;37364;46.974;18.916;2023-02-28T03:48:45;150139.97;;;-0.86;100.00
51287;BME280;37364;46.974;18.916;2023-02-28T03:51:19;150138.72;;;-0.86;100.00
51287;BME280;37364;46.974;18.916;2023-02-28T03:53:52;150116.88;;;-0.95;100.00
51287;BME280;37364;46.974;18.916;2023-02-28T03:56:29;150114.31;;;-0.96;100.00
51287;BME280;37364;46.974;18.916;2023-02-28T03:59:05;150114.31;;;-0.96;100.00
51287;BME280;37364;46.974;18.916;2023-02-28T04:01:38;150129.72;;;-0.90;100.00
51287;BME280;37364;46.974;18.916;2023-02-28T04:04:10;150124.59;;;-0.92;100.00
51287;BME280;37364;46.974;18.916;2023-02-28T04:06:43;150116.88;;;-0.95;100.00
51287;BME280;37364;46.974;18.916;2023-02-28T04:09:14;150115.59;;;-0.95;100.00
51287;BME280;37364;46.974;18.916;2023-02-28T04:11:51;150118.13;;;-0.94;100.00
51287;BME280;37364;46.974;18.916;2023-02-28T04:14:22;150116.88;;;-0.95;100.00
51287;BME280;37364;46.974;18.916;2023-02-28T04:16:53;150128.41;;;-0.90;100.00
51287;BME280;37364;46.974;18.916;2023-02-28T04:19:23;150123.28;;;-0.92;100.00
51287;BME280;37364;46.974;18.916;2023-02-28T04:21:54;150128.41;;;-0.90;100.00
51287;BME280;37364;46.974;18.916;2023-02-28T04:24:25;150127.13;;;-0.91;100.00
51287;BME280;37364;46.974;18.916;2023-02-28T04:26:58;150129.72;;;-0.90;100.00
51287;BME280;37364;46.974;18.916;2023-02-28T04:29:30;150122.00;;;-0.93;100.00
51287;BME280;37364;46.974;18.916;2023-02-28T04:32:01;150118.13;;;-0.94;100.00
51287;BME280;37364;46.974;18.916;2023-02-28T04:34:32;150122.00;;;-0.93;100.00
51287;BME280;37364;46.974;18.916;2023-02-28T04:37:02;150125.84;;;-0.91;100.00
51287;BME280;37364;46.974;18.916;2023-02-28T04:39:39;150125.84;;;-0.91;100.00
51287;BME280;37364;46.974;18.916;2023-02-28T04:42:13;150123.28;;;-0.92;100.00
51287;BME280;37364;46.974;18.916;2023-02-28T04:44:43;150125.84;;;-0.91;100.00
51287;BME280;37364;46.974;18.916;2023-02-28T04:47:14;150114.31;;;-0.96;100.00
51287;BME280;37364;46.974;18.916;2023-02-28T04:49:44;150101.47;;;-1.01;100.00
51287;BME280;37364;46.974;18.916;2023-02-28T04:52:14;150115.59;;;-0.95;100.00
51287;BME280;37364;46.974;18.916;2023-02-28T04:54:44;150105.34;;;-1.00;100.00
51287;BME280;37364;46.974;18.916;2023-02-28T04:57:17;150106.59;;;-0.99;100.00
51287;BME280;37364;46.974;18.916;2023-02-28T04:59:47;150110.47;;;-0.97;100.00
51287;BME280;37364;46.974;18.916;2023-02-28T05:02:17;150088.63;;;-1.06;100.00
51287;BME280;37364;46.974;18.916;2023-02-28T05:04:48;150077.09;;;-1.11;100.00
51287;BME280;37364;46.974;18.916;2023-02-28T05:07:18;150075.81;;;-1.11;100.00
51287;BME280;37364;46.974;18.916;2023-02-28T05:09:48;150057.84;;;-1.18;100.00
51287;BME280;37364;46.974;18.916;2023-02-28T05:12:21;150059.13;;;-1.18;100.00
51287;BME280;37364;46.974;18.916;2023-02-28T05:14:51;150042.44;;;-1.25;100.00
51287;BME280;37364;46.974;18.916;2023-02-28T05:17:21;150034.72;;;-1.28;100.00
51287;BME280;37364;46.974;18.916;2023-02-28T05:19:51;150043.72;;;-1.24;100.00
51287;BME280;37364;46.974;18.916;2023-02-28T05:22:39;150046.31;;;-1.23;100.00
51287;BME280;37364;46.974;18.916;2023-02-28T05:25:12;150052.72;;;-1.21;100.00
51287;BME280;37364;46.974;18.916;2023-02-28T05:27:46;150028.34;;;-1.30;100.00
51287;BME280;37364;46.974;18.916;2023-02-28T05:30:16;150018.06;;;-1.34;100.00
51287;BME280;37364;46.974;18.916;2023-02-28T05:32:50;150025.78;;;-1.31;100.00
51287;BME280;37364;46.974;18.916;2023-02-28T05:35:21;150011.69;;;-1.37;100.00
51287;BME280;37364;46.974;18.916;2023-02-28T05:37:51;149991.09;;;-1.45;100.00
51287;BME280;37364;46.974;18.916;2023-02-28T05:40:21;149994.97;;;-1.44;100.00
51287;BME280;37364;46.974;18.916;2023-02-28T05:42:54;149980.84;;;-1.49;100.00
51287;BME280;37364;46.974;18.916;2023-02-28T05:45:24;149985.97;;;-1.47;100.00
51287;BME280;37364;46.974;18.916;2023-02-28T05:47:55;149984.72;;;-1.48;100.00
51287;BME280;37364;46.974;18.916;2023-02-28T05:50:25;149974.44;;;-1.52;100.00
51287;BME280;37364;46.974;18.916;2023-02-28T05:52:55;149975.72;;;-1.51;100.00
51287;BME280;37364;46.974;18.916;2023-02-28T05:55:26;149959.06;;;-1.58;100.00
51287;BME280;37364;46.974;18.916;2023-02-28T05:57:59;149966.75;;;-1.55;100.00
51287;BME280;37364;46.974;18.916;2023-02-28T06:00:29;149959.06;;;-1.58;100.00
51287;BME280;37364;46.974;18.916;2023-02-28T06:02:59;149965.47;;;-1.55;100.00
51287;BME280;37364;46.974;18.916;2023-02-28T06:05:29;149982.16;;;-1.49;100.00
51287;BME280;37364;46.974;18.916;2023-02-28T06:08:00;149978.31;;;-1.50;100.00
51287;BME280;37364;46.974;18.916;2023-02-28T06:10:30;149997.56;;;-1.43;100.00
51287;BME280;37364;46.974;18.916;2023-02-28T06:13:03;149988.56;;;-1.46;100.00
51287;BME280;37364;46.974;18.916;2023-02-28T06:15:33;149970.59;;;-1.53;100.00
51287;BME280;37364;46.974;18.916;2023-02-28T06:18:04;149980.84;;;-1.49;100.00
51287;BME280;37364;46.974;18.916;2023-02-28T06:20:35;149975.72;;;-1.51;100.00
51287;BME280;37364;46.974;18.916;2023-02-28T06:23:05;149975.72;;;-1.51;100.00
51287;BME280;37364;46.974;18.916;2023-02-28T06:25:35;149979.59;;;-1.50;100.00
51287;BME280;37364;46.974;18.916;2023-02-28T06:28:07;149979.59;;;-1.50;100.00
51287;BME280;37364;46.974;18.916;2023-02-28T06:30:38;149982.16;;;-1.49;100.00
51287;BME280;37364;46.974;18.916;2023-02-28T06:33:12;149982.16;;;-1.49;100.00
51287;BME280;37364;46.974;18.916;2023-02-28T06:35:43;149978.31;;;-1.50;100.00
51287;BME280;37364;46.974;18.916;2023-02-28T06:38:14;149997.56;;;-1.43;100.00
51287;BME280;37364;46.974;18.916;2023-02-28T06:40:48;150009.09;;;-1.38;100.00
51287;BME280;37364;46.974;18.916;2023-02-28T06:43:27;150012.94;;;-1.36;100.00
51287;BME280;37364;46.974;18.916;2023-02-28T06:45:59;150011.69;;;-1.37;100.00
51287;BME280;37364;46.974;18.916;2023-02-28T06:48:30;150007.81;;;-1.38;100.00
51287;BME280;37364;46.974;18.916;2023-02-28T06:51:03;150016.81;;;-1.35;100.00
51287;BME280;37364;46.974;18.916;2023-02-28T06:53:33;150028.34;;;-1.30;100.00
51287;BME280;37364;46.974;18.916;2023-02-28T06:56:04;150036.06;;;-1.27;100.00
51287;BME280;37364;46.974;18.916;2023-02-28T06:58:38;150043.72;;;-1.24;100.00
51287;BME280;37364;46.974;18.916;2023-02-28T07:01:09;150048.84;;;-1.22;100.00
51287;BME280;37364;46.974;18.916;2023-02-28T07:03:39;150068.09;;;-1.14;100.00
51287;BME280;37364;46.974;18.916;2023-02-28T07:06:09;150052.72;;;-1.21;100.00
51287;BME280;37364;46.974;18.916;2023-02-28T07:08:41;150068.09;;;-1.14;100.00
51287;BME280;37364;46.974;18.916;2023-02-28T07:11:11;150080.94;;;-1.09;100.00
51287;BME280;37364;46.974;18.916;2023-02-28T07:13:44;150104.00;;;-1.00;100.00
51287;BME280;37364;46.974;18.916;2023-02-28T07:16:14;150125.84;;;-0.91;100.00
51287;BME280;37364;46.974;18.916;2023-02-28T07:18:44;150128.41;;;-0.90;100.00
51287;BME280;37364;46.974;18.916;2023-02-28T07:21:16;150133.53;;;-0.88;100.00
51287;BME280;37364;46.974;18.916;2023-02-28T07:23:46;150143.84;;;-0.84;100.00
51287;BME280;37364;46.974;18.916;2023-02-28T07:26:17;150165.63;;;-0.75;100.00
51287;BME280;37364;46.974;18.916;2023-02-28T07:28:50;150174.63;;;-0.72;100.00
51287;BME280;37364;46.974;18.916;2023-02-28T07:31:21;150169.50;;;-0.74;100.00
51287;BME280;37364;46.974;18.916;2023-02-28T07:33:51;150204.16;;;-0.60;100.00
51287;BME280;37364;46.974;18.916;2023-02-28T07:36:24;150233.69;;;-0.48;100.00
51287;BME280;37364;46.974;18.916;2023-02-28T07:38:54;150267.06;;;-0.35;100.00
51287;BME280;37364;46.974;18.916;2023-02-28T07:41:24;150292.75;;;-0.25;100.00
51287;BME280;37364;46.974;18.916;2023-02-28T07:44:00;150301.75;;;-0.21;100.00
51287;BME280;37364;46.974;18.916;2023-02-28T07:46:30;150331.28;;;-0.09;100.00
51287;BME280;37364;46.974;18.916;2023-02-28T07:49:03;150356.94;;;0.01;100.00
51287;BME280;37364;46.974;18.916;2023-02-28T07:51:33;150398.03;;;0.17;100.00
51287;BME280;37364;46.974;18.916;2023-02-28T07:54:04;150390.34;;;0.14;100.00
51287;BME280;37364;46.974;18.916;2023-02-28T07:56:34;150450.72;;;0.38;100.00
51287;BME280;37364;46.974;18.916;2023-02-28T07:59:07;150421.16;;;0.27;100.00
51287;BME280;37364;46.974;18.916;2023-02-28T08:01:37;150450.72;;;0.38;100.00
51287;BME280;37364;46.974;18.916;2023-02-28T08:04:07;150468.72;;;0.46;100.00
51287;BME280;37364;46.974;18.916;2023-02-28T08:06:37;150489.25;;;0.54;100.00
51287;BME280;37364;46.974;18.916;2023-02-28T08:09:08;150554.78;;;0.80;100.00
51287;BME280;37364;46.974;18.916;2023-02-28T08:11:38;150577.94;;;0.89;100.00
51287;BME280;37364;46.974;18.916;2023-02-28T08:14:11;150583.06;;;0.91;100.00
51287;BME280;37364;46.974;18.916;2023-02-28T08:16:41;150553.50;;;0.79;100.00
51287;BME280;37364;46.974;18.916;2023-02-28T08:19:11;150547.09;;;0.77;100.00
51287;BME280;37364;46.974;18.916;2023-02-28T08:21:41;150563.78;;;0.84;100.00
51287;BME280;37364;46.974;18.916;2023-02-28T08:24:11;150616.50;;;1.05;100.00
51287;BME280;37364;46.974;18.916;2023-02-28T08:26:41;150602.34;;;0.99;100.00
51287;BME280;37364;46.974;18.916;2023-02-28T08:29:14;150673.03;;;1.27;100.00
51287;BME280;37364;46.974;18.916;2023-02-28T08:31:44;150682.03;;;1.31;100.00
51287;BME280;37364;46.974;18.916;2023-02-28T08:34:16;150705.19;;;1.40;100.00
51287;BME280;37364;46.974;18.916;2023-02-28T08:36:46;150792.66;;;1.75;100.00
51287;BME280;37364;46.974;18.916;2023-02-28T08:39:16;150817.09;;;1.85;100.00
51287;BME280;37364;46.974;18.916;2023-02-28T08:41:47;150818.38;;;1.85;100.00
51287;BME280;37364;46.974;18.916;2023-02-28T08:44:34;150818.38;;;1.85;100.00
51287;BME280;37364;46.974;18.916;2023-02-28T08:47:04;150804.22;;;1.80;100.00
51287;BME280;37364;46.974;18.916;2023-02-28T08:49:37;150849.22;;;1.97;100.00
51287;BME280;37364;46.974;18.916;2023-02-28T08:52:07;150779.78;;;1.70;100.00
51287;BME280;37364;46.974;18.916;2023-02-28T08:54:37;150773.38;;;1.67;100.00
51287;BME280;37364;46.974;18.916;2023-02-28T08:57:08;150806.81;;;1.81;100.00
51287;BME280;37364;46.974;18.916;2023-02-28T08:59:41;150810.63;;;1.82;100.00
51287;BME280;37364;46.974;18.916;2023-02-28T09:02:12;150833.78;;;1.91;100.00
51287;BME280;37364;46.974;18.916;2023-02-28T09:04:43;150860.84;;;2.02;100.00
51287;BME280;37364;46.974;18.916;2023-02-28T09:07:14;150885.28;;;2.12;100.00
51287;BME280;37364;46.974;18.916;2023-02-28T09:09:44;150890.41;;;2.14;100.00
51287;BME280;37364;46.974;18.916;2023-02-28T09:12:26;150818.38;;;1.85;100.00
51287;BME280;37364;46.974;18.916;2023-02-28T09:14:59;150826.09;;;1.88;100.00
51287;BME280;37364;46.974;18.916;2023-02-28T09:17:30;150778.50;;;1.69;100.00
51287;BME280;37364;46.974;18.916;2023-02-28T09:20:00;150806.81;;;1.81;100.00
51287;BME280;37364;46.974;18.916;2023-02-28T09:22:30;150765.63;;;1.64;100.00
51287;BME280;37364;46.974;18.916;2023-02-28T09:25:00;150774.63;;;1.68;100.00
51287;BME280;37364;46.974;18.916;2023-02-28T09:27:33;150751.47;;;1.58;100.00
51287;BME280;37364;46.974;18.916;2023-02-28T09:30:08;150820.97;;;1.86;100.00
51287;BME280;37364;46.974;18.916;2023-02-28T09:32:38;150892.97;;;2.15;100.00
51287;BME280;37364;46.974;18.916;2023-02-28T09:35:09;150905.84;;;2.20;100.00
51287;BME280;37364;46.974;18.916;2023-02-28T09:37:43;150908.41;;;2.21;100.00
51287;BME280;37364;46.974;18.916;2023-02-28T09:40:14;150911.00;;;2.22;100.00
51287;BME280;37364;46.974;18.916;2023-02-28T09:42:48;150877.53;;;2.09;100.00
51287;BME280;37364;46.974;18.916;2023-02-28T09:45:24;150945.72;;;2.36;100.00
51287;BME280;37364;46.974;18.916;2023-02-28T09:47:59;150894.25;;;2.15;100.00
51287;BME280;37364;46.974;18.916;2023-02-28T09:50:35;150927.69;;;2.29;100.00
51287;BME280;37364;46.974;18.916;2023-02-28T09:53:13;150984.34;;;2.51;100.00
51287;BME280;37364;46.974;18.916;2023-02-28T09:55:48;151007.47;;;2.61;100.00
51287;BME280;37364;46.974;18.916;2023-02-28T09:58:26;151068.00;;;2.85;100.00
51287;BME280;37364;46.974;18.916;2023-02-28T10:01:06;151053.84;;;2.79;100.00
51287;BME280;37364;46.974;18.916;2023-02-28T10:03:41;151015.22;;;2.64;100.00
51287;BME280;37364;46.974;18.916;2023-02-28T10:06:18;151029.38;;;2.69;100.00
51287;BME280;37364;46.974;18.916;2023-02-28T10:08:54;151110.47;;;3.02;100.00
51287;BME280;37364;46.974;18.916;2023-02-28T10:11:27;151088.59;;;2.93;100.00
51287;BME280;37364;46.974;18.916;2023-02-28T10:14:02;150985.63;;;2.52;100.00
51287;BME280;37364;46.974;18.916;2023-02-28T10:16:40;151105.31;;;3.00;100.00
51287;BME280;37364;46.974;18.916;2023-02-28T10:19:15;151147.81;;;3.16;100.00
51287;BME280;37364;46.974;18.916;2023-02-28T10:21:55;151164.53;;;3.23;100.00
51287;BME280;37364;46.974;18.916;2023-02-28T10:24:32;151070.56;;;2.86;100.00
51287;BME280;37364;46.974;18.916;2023-02-28T10:27:13;151119.47;;;3.05;100.00
51287;BME280;37364;46.974;18.916;2023-02-28T10:29:46;151149.09;;;3.17;100.00
51287;BME280;37364;46.974;18.916;2023-02-28T10:32:22;151207.06;;;3.40;100.00
51287;BME280;37364;46.974;18.916;2023-02-28T10:34:57;151248.25;;;3.56;100.00
51287;BME280;37364;46.974;18.916;2023-02-28T10:37:29;151335.84;;;3.91;100.00
51287;BME280;37364;46.974;18.916;2023-02-28T10:39:59;151140.06;;;3.13;100.00
51287;BME280;37364;46.974;18.916;2023-02-28T10:42:30;151240.53;;;3.53;100.00
51287;BME280;37364;46.974;18.916;2023-02-28T10:45:12;151213.47;;;3.43;100.00
51287;BME280;37364;46.974;18.916;2023-02-28T10:47:56;151294.66;;;3.75;100.00
51287;BME280;37364;46.974;18.916;2023-02-28T10:50:37;151293.38;;;3.74;100.00
51287;BME280;37364;46.974;18.916;2023-02-28T10:53:24;151254.72;;;3.59;100.00
51287;BME280;37364;46.974;18.916;2023-02-28T10:55:59;151271.44;;;3.66;99.82
51287;BME280;37364;46.974;18.916;2023-02-28T10:58:32;151256.00;;;3.60;100.00
51287;BME280;37364;46.974;18.916;2023-02-28T11:01:15;151250.84;;;3.58;100.00
51287;BME280;37364;46.974;18.916;2023-02-28T11:03:48;151209.66;;;3.41;100.00
51287;BME280;37364;46.974;18.916;2023-02-28T11:06:21;151234.13;;;3.51;100.00
51287;BME280;37364;46.974;18.916;2023-02-28T11:08:53;151244.41;;;3.55;100.00
51287;BME280;37364;46.974;18.916;2023-02-28T11:11:26;151346.16;;;3.95;100.00
51287;BME280;37364;46.974;18.916;2023-02-28T11:14:04;151348.75;;;3.96;100.00
51287;BME280;37364;46.974;18.916;2023-02-28T11:16:36;151359.06;;;4.01;100.00
51287;BME280;37364;46.974;18.916;2023-02-28T11:19:19;151389.97;;;4.13;100.00
51287;BME280;37364;46.974;18.916;2023-02-28T11:21:54;151386.09;;;4.11;100.00
51287;BME280;37364;46.974;18.916;2023-02-28T11:24:27;151277.88;;;3.68;100.00
51287;BME280;37364;46.974;18.916;2023-02-28T11:26:58;151303.66;;;3.79;100.00
51287;BME280;37364;46.974;18.916;2023-02-28T11:29:30;151317.84;;;3.84;100.00
51287;BME280;37364;46.974;18.916;2023-02-28T11:32:12;151275.31;;;3.67;100.00
51287;BME280;37364;46.974;18.916;2023-02-28T11:34:47;151323.00;;;3.86;100.00
51287;BME280;37364;46.974;18.916;2023-02-28T11:37:30;151329.41;;;3.89;100.00
51287;BME280;37364;46.974;18.916;2023-02-28T11:40:08;151359.06;;;4.01;100.00
51287;BME280;37364;46.974;18.916;2023-02-28T11:42:52;151311.38;;;3.82;100.00
51287;BME280;37364;46.974;18.916;2023-02-28T11:45:38;151325.53;;;3.87;100.00
51287;BME280;37364;46.974;18.916;2023-02-28T11:48:19;151353.91;;;3.99;100.00
51287;BME280;37364;46.974;18.916;2023-02-28T11:51:01;151383.53;;;4.10;100.00
51287;BME280;37364;46.974;18.916;2023-02-28T11:53:51;151325.53;;;3.87;100.00
51287;BME280;37364;46.974;18.916;2023-02-28T11:56:32;151346.16;;;3.95;100.00
51287;BME280;37364;46.974;18.916;2023-02-28T11:59:14;151436.38;;;4.31;100.00
51287;BME280;37364;46.974;18.916;2023-02-28T12:02:15;151364.19;;;4.03;100.00
51287;BME280;37364;46.974;18.916;2023-02-28T12:04:57;151329.41;;;3.89;100.00
51287;BME280;37364;46.974;18.916;2023-02-28T12:07:47;151248.25;;;3.56;100.00
51287;BME280;37364;46.974;18.916;2023-02-28T12:10:22;151356.44;;;4.00;100.00
51287;BME280;37364;46.974;18.916;2023-02-28T12:13:01;151329.41;;;3.89;100.00
51287;BME280;37364;46.974;18.916;2023-02-28T12:15:48;151339.72;;;3.93;99.50
51287;BME280;37364;46.974;18.916;2023-02-28T12:18:41;151317.84;;;3.84;100.00
51287;BME280;37364;46.974;18.916;2023-02-28T12:21:19;151352.63;;;3.98;100.00
51287;BME280;37364;46.974;18.916;2023-02-28T12:24:17;151413.16;;;4.22;99.27
51287;BME280;37364;46.974;18.916;2023-02-28T12:26:53;151364.19;;;4.03;100.00
51287;BME280;37364;46.974;18.916;2023-02-28T12:29:28;151418.31;;;4.24;100.00
51287;BME280;37364;46.974;18.916;2023-02-28T12:32:03;151449.25;;;4.36;96.69
51287;BME280;37364;46.974;18.916;2023-02-28T12:34:38;151441.53;;;4.33;100.00
51287;BME280;37364;46.974;18.916;2023-02-28T12:37:13;151420.88;;;4.25;99.23
51287;BME280;37364;46.974;18.916;2023-02-28T12:39:50;151387.41;;;4.12;98.08
51287;BME280;37364;46.974;18.916;2023-02-28T12:42:26;151353.91;;;3.99;100.00
51287;BME280;37364;46.974;18.916;2023-02-28T12:45:01;151392.56;;;4.14;98.91
51287;BME280;37364;46.974;18.916;2023-02-28T12:47:38;151392.56;;;4.14;100.00
51287;BME280;37364;46.974;18.916;2023-02-28T12:50:11;151399.00;;;4.16;98.67
51287;BME280;37364;46.974;18.916;2023-02-28T12:52:48;151467.31;;;4.44;100.00
51287;BME280;37364;46.974;18.916;2023-02-28T12:55:30;151419.59;;;4.25;100.00
51287;BME280;37364;46.974;18.916;2023-02-28T12:58:14;151441.53;;;4.33;99.21
51287;BME280;37364;46.974;18.916;2023-02-28T13:04:03;151489.19;;;4.52;98.82
51287;BME280;37364;46.974;18.916;2023-02-28T13:06:51;151493.06;;;4.54;97.80
51287;BME280;37364;46.974;18.916;2023-02-28T13:09:27;151441.53;;;4.33;100.00
51287;BME280;37364;46.974;18.916;2023-02-28T13:12:01;151454.38;;;4.39;100.00
51287;BME280;37364;46.974;18.916;2023-02-28T13:14:36;151431.22;;;4.29;97.45
51287;BME280;37364;46.974;18.916;2023-02-28T13:17:11;151402.88;;;4.18;98.73
51287;BME280;37364;46.974;18.916;2023-02-28T13:19:44;151441.53;;;4.33;100.00
51287;BME280;37364;46.974;18.916;2023-02-28T13:22:20;151446.69;;;4.35;100.00